TWA606 KSFO-KORD
Flight info
| Callsign | TWA606 |
|---|---|
| Flight time | 3h 44m |
| Altitude | 37000 |
| Route | SFO4 SGD SAC HZN BQU TCH CYS/N0487F390 TDD YKN SPW MCW DBQ JVL JVL1 |
| Aircraft | B742/H-SDIWY/L |
Departure
| Time | 2026-05-07 20:18 |
|---|---|
| Airport | San Francisco International Airport (KSFO) |
Arrival
| Time | 2026-05-08 00:03 |
|---|---|
| Airport | Chicago O'Hare International Airport (KORD) |
| Time | Latitude | Longitude | Altitude | Speed | Heading |
|---|---|---|---|---|---|
| 2026-05-07 19:09 | 37.61212 | -122.39067 | 30 ft | 0 kts | 118° |
| 2026-05-07 19:58 | 37.61213 | -122.39068 | 30 ft | 1 kts | 118° |
| 2026-05-07 19:58 | 37.61220 | -122.39085 | 30 ft | 2 kts | 117° |
| 2026-05-07 19:58 | 37.61227 | -122.39101 | 30 ft | 2 kts | 118° |
| 2026-05-07 19:59 | 37.61234 | -122.39119 | 30 ft | 2 kts | 121° |
| 2026-05-07 19:59 | 37.61245 | -122.39132 | 30 ft | 2 kts | 154° |
| 2026-05-07 19:59 | 37.61260 | -122.39136 | 30 ft | 2 kts | 181° |
| 2026-05-07 19:59 | 37.61274 | -122.39133 | 30 ft | 1 kts | 206° |
| 2026-05-07 20:00 | 37.61279 | -122.39129 | 30 ft | 0 kts | 209° |
| 2026-05-07 20:06 | 37.61279 | -122.39130 | 30 ft | 0 kts | 209° |
| 2026-05-07 20:06 | 37.61231 | -122.39160 | 30 ft | 8 kts | 204° |
| 2026-05-07 20:06 | 37.61168 | -122.39170 | 30 ft | 6 kts | 168° |
| 2026-05-07 20:07 | 37.61081 | -122.39111 | 29 ft | 20 kts | 130° |
| 2026-05-07 20:07 | 37.61056 | -122.39074 | 29 ft | 0 kts | 130° |
| 2026-05-07 20:07 | 37.61055 | -122.39073 | 29 ft | 1 kts | 130° |
| 2026-05-07 20:07 | 37.61026 | -122.39028 | 30 ft | 11 kts | 127° |
| 2026-05-07 20:08 | 37.60968 | -122.38929 | 31 ft | 13 kts | 127° |
| 2026-05-07 20:08 | 37.60923 | -122.38851 | 31 ft | 11 kts | 121° |
| 2026-05-07 20:08 | 37.60889 | -122.38775 | 32 ft | 8 kts | 119° |
| 2026-05-07 20:08 | 37.60847 | -122.38677 | 33 ft | 17 kts | 118° |
| 2026-05-07 20:09 | 37.60790 | -122.38545 | 33 ft | 11 kts | 118° |
| 2026-05-07 20:09 | 37.60716 | -122.38496 | 33 ft | 16 kts | 165° |
| 2026-05-07 20:09 | 37.60600 | -122.38368 | 31 ft | 26 kts | 130° |
| 2026-05-07 20:10 | 37.60523 | -122.38025 | 27 ft | 17 kts | 65° |
| 2026-05-07 20:10 | 37.60629 | -122.37918 | 24 ft | 24 kts | 27° |
| 2026-05-07 20:10 | 37.60792 | -122.37810 | 23 ft | 26 kts | 27° |
| 2026-05-07 20:10 | 37.60947 | -122.37707 | 23 ft | 24 kts | 28° |
| 2026-05-07 20:11 | 37.61092 | -122.37610 | 22 ft | 23 kts | 28° |
| 2026-05-07 20:11 | 37.61234 | -122.37515 | 20 ft | 25 kts | 30° |
| 2026-05-07 20:11 | 37.61415 | -122.37394 | 18 ft | 30 kts | 27° |
| 2026-05-07 20:11 | 37.61531 | -122.37290 | 16 ft | 19 kts | 55° |
| 2026-05-07 20:12 | 37.61551 | -122.37117 | 14 ft | 20 kts | 109° |
| 2026-05-07 20:12 | 37.61488 | -122.36962 | 14 ft | 19 kts | 122° |
| 2026-05-07 20:12 | 37.61385 | -122.36812 | 13 ft | 26 kts | 127° |
| 2026-05-07 20:12 | 37.61298 | -122.36618 | 13 ft | 24 kts | 117° |
| 2026-05-07 20:13 | 37.61220 | -122.36430 | 11 ft | 23 kts | 119° |
| 2026-05-07 20:13 | 37.61144 | -122.36250 | 10 ft | 22 kts | 117° |
| 2026-05-07 20:13 | 37.61073 | -122.36082 | 10 ft | 21 kts | 120° |
| 2026-05-07 20:13 | 37.61077 | -122.35927 | 10 ft | 17 kts | 39° |
| 2026-05-07 20:14 | 37.61086 | -122.35919 | 10 ft | 0 kts | 30° |
| 2026-05-07 20:15 | 37.61092 | -122.35914 | 10 ft | 4 kts | 30° |
| 2026-05-07 20:16 | 37.61158 | -122.35867 | 10 ft | 16 kts | 29° |
| 2026-05-07 20:16 | 37.61260 | -122.35796 | 10 ft | 16 kts | 29° |
| 2026-05-07 20:16 | 37.61356 | -122.35752 | 10 ft | 12 kts | 341° |
| 2026-05-07 20:16 | 37.61399 | -122.35817 | 10 ft | 0 kts | 296° |
| 2026-05-07 20:17 | 37.61402 | -122.35826 | 10 ft | 5 kts | 296° |
| 2026-05-07 20:17 | 37.61468 | -122.35989 | 10 ft | 47 kts | 298° |
| 2026-05-07 20:17 | 37.61718 | -122.36582 | 14 ft | 104 kts | 298° |
| 2026-05-07 20:18 | 37.62139 | -122.37598 | 28 ft | 154 kts | 298° |
| 2026-05-07 20:18 | 37.62695 | -122.38905 | 220 ft | 178 kts | 300° |
| 2026-05-07 20:18 | 37.63284 | -122.40283 | 797 ft | 179 kts | 299° |
| 2026-05-07 20:18 | 37.63872 | -122.41673 | 1374 ft | 184 kts | 296° |
| 2026-05-07 20:19 | 37.64409 | -122.43177 | 1881 ft | 192 kts | 294° |
| 2026-05-07 20:19 | 37.64956 | -122.44761 | 2360 ft | 203 kts | 294° |
| 2026-05-07 20:19 | 37.65534 | -122.46446 | 2892 ft | 214 kts | 294° |
| 2026-05-07 20:19 | 37.66144 | -122.48221 | 3468 ft | 225 kts | 294° |
| 2026-05-07 20:20 | 37.66781 | -122.50059 | 4135 ft | 233 kts | 294° |
| 2026-05-07 20:20 | 37.67582 | -122.51844 | 4802 ft | 239 kts | 315° |
| 2026-05-07 20:20 | 37.69043 | -122.52882 | 5389 ft | 252 kts | 348° |
| 2026-05-07 20:20 | 37.70845 | -122.52868 | 5893 ft | 268 kts | 6° |
| 2026-05-07 20:21 | 37.72751 | -122.52525 | 6386 ft | 284 kts | 8° |
| 2026-05-07 20:21 | 37.74721 | -122.52056 | 6869 ft | 284 kts | 11° |
| 2026-05-07 20:21 | 37.76657 | -122.51509 | 7350 ft | 286 kts | 12° |
| 2026-05-07 20:21 | 37.78606 | -122.50905 | 7841 ft | 289 kts | 13° |
| 2026-05-07 20:22 | 37.80565 | -122.50266 | 8325 ft | 291 kts | 13° |
| 2026-05-07 20:22 | 37.82534 | -122.49606 | 8805 ft | 294 kts | 13° |
| 2026-05-07 20:22 | 37.84522 | -122.48928 | 9282 ft | 296 kts | 14° |
| 2026-05-07 20:22 | 37.86524 | -122.48240 | 9756 ft | 299 kts | 14° |
| 2026-05-07 20:23 | 37.88549 | -122.47541 | 10225 ft | 301 kts | 14° |
| 2026-05-07 20:23 | 37.90578 | -122.46839 | 10688 ft | 303 kts | 14° |
| 2026-05-07 20:23 | 37.92626 | -122.46129 | 11168 ft | 305 kts | 14° |
| 2026-05-07 20:23 | 37.94688 | -122.45414 | 11640 ft | 307 kts | 14° |
| 2026-05-07 20:24 | 37.96767 | -122.44692 | 12100 ft | 309 kts | 14° |
| 2026-05-07 20:24 | 37.98858 | -122.43965 | 12563 ft | 312 kts | 14° |
| 2026-05-07 20:24 | 38.00966 | -122.43233 | 13040 ft | 314 kts | 14° |
| 2026-05-07 20:24 | 38.03084 | -122.42496 | 13519 ft | 317 kts | 14° |
| 2026-05-07 20:25 | 38.05227 | -122.41750 | 13999 ft | 318 kts | 14° |
| 2026-05-07 20:25 | 38.07373 | -122.41002 | 14482 ft | 320 kts | 14° |
| 2026-05-07 20:25 | 38.09520 | -122.40254 | 14954 ft | 320 kts | 14° |
| 2026-05-07 20:25 | 38.11675 | -122.39502 | 15428 ft | 321 kts | 14° |
| 2026-05-07 20:26 | 38.13855 | -122.38784 | 15902 ft | 321 kts | 8° |
| 2026-05-07 20:26 | 38.16068 | -122.38321 | 16392 ft | 322 kts | 17° |
| 2026-05-07 20:26 | 38.18125 | -122.37094 | 16825 ft | 329 kts | 35° |
| 2026-05-07 20:26 | 38.19823 | -122.35095 | 17208 ft | 338 kts | 52° |
| 2026-05-07 20:27 | 38.21138 | -122.32563 | 17590 ft | 346 kts | 58° |
| 2026-05-07 20:27 | 38.22352 | -122.29867 | 17968 ft | 355 kts | 61° |
| 2026-05-07 20:27 | 38.23498 | -122.27043 | 18348 ft | 364 kts | 64° |
| 2026-05-07 20:27 | 38.24569 | -122.24090 | 18714 ft | 373 kts | 66° |
| 2026-05-07 20:28 | 38.25585 | -122.21007 | 19076 ft | 382 kts | 68° |
| 2026-05-07 20:28 | 38.26571 | -122.17815 | 19437 ft | 391 kts | 68° |
| 2026-05-07 20:28 | 38.27547 | -122.14537 | 19801 ft | 400 kts | 69° |
| 2026-05-07 20:28 | 38.28524 | -122.11183 | 20173 ft | 408 kts | 69° |
| 2026-05-07 20:29 | 38.29510 | -122.07762 | 20543 ft | 410 kts | 69° |
| 2026-05-07 20:29 | 38.30492 | -122.04333 | 20918 ft | 411 kts | 69° |
| 2026-05-07 20:29 | 38.31470 | -122.00911 | 21289 ft | 412 kts | 70° |
| 2026-05-07 20:29 | 38.32454 | -121.97461 | 21659 ft | 415 kts | 70° |
| 2026-05-07 20:30 | 38.33442 | -121.93992 | 22035 ft | 417 kts | 70° |
| 2026-05-07 20:30 | 38.34429 | -121.90514 | 22411 ft | 419 kts | 70° |
| 2026-05-07 20:30 | 38.35422 | -121.87013 | 22788 ft | 420 kts | 70° |
| 2026-05-07 20:30 | 38.36417 | -121.83498 | 23175 ft | 422 kts | 70° |
| 2026-05-07 20:31 | 38.37414 | -121.79974 | 23562 ft | 425 kts | 70° |
| 2026-05-07 20:31 | 38.38421 | -121.76404 | 23955 ft | 429 kts | 70° |
| 2026-05-07 20:31 | 38.39434 | -121.72804 | 24351 ft | 433 kts | 69° |
| 2026-05-07 20:31 | 38.40457 | -121.69168 | 24744 ft | 436 kts | 69° |
| 2026-05-07 20:32 | 38.41487 | -121.65495 | 25140 ft | 438 kts | 69° |
| 2026-05-07 20:32 | 38.42515 | -121.61824 | 25531 ft | 441 kts | 70° |
| 2026-05-07 20:32 | 38.43748 | -121.58230 | 25921 ft | 441 kts | 58° |
| 2026-05-07 20:32 | 38.45398 | -121.54918 | 26318 ft | 441 kts | 59° |
| 2026-05-07 20:33 | 38.46872 | -121.51464 | 26715 ft | 443 kts | 62° |
| 2026-05-07 20:33 | 38.48274 | -121.47954 | 27108 ft | 444 kts | 62° |
| 2026-05-07 20:33 | 38.49662 | -121.44413 | 27505 ft | 444 kts | 62° |
| 2026-05-07 20:33 | 38.51049 | -121.40853 | 27904 ft | 444 kts | 62° |
| 2026-05-07 20:34 | 38.52423 | -121.37316 | 28299 ft | 444 kts | 62° |
| 2026-05-07 20:34 | 38.53777 | -121.33817 | 28692 ft | 443 kts | 63° |
| 2026-05-07 20:34 | 38.55137 | -121.30299 | 29088 ft | 441 kts | 63° |
| 2026-05-07 20:34 | 38.56481 | -121.26808 | 29484 ft | 439 kts | 63° |
| 2026-05-07 20:35 | 38.57815 | -121.23333 | 29877 ft | 436 kts | 63° |
| 2026-05-07 20:35 | 38.59148 | -121.19854 | 30265 ft | 433 kts | 63° |
| 2026-05-07 20:35 | 38.60458 | -121.16428 | 30650 ft | 430 kts | 63° |
| 2026-05-07 20:35 | 38.61756 | -121.13029 | 30956 ft | 428 kts | 63° |
| 2026-05-07 20:36 | 38.63058 | -121.09627 | 31051 ft | 432 kts | 63° |
| 2026-05-07 20:36 | 38.65712 | -121.02673 | 31077 ft | 443 kts | 63° |
| 2026-05-07 20:37 | 38.68424 | -120.95562 | 31095 ft | 454 kts | 63° |
| 2026-05-07 20:37 | 38.71216 | -120.88234 | 31121 ft | 465 kts | 63° |
| 2026-05-07 20:38 | 38.74070 | -120.80760 | 31147 ft | 475 kts | 63° |
| 2026-05-07 20:38 | 38.76981 | -120.73154 | 31161 ft | 476 kts | 62° |
| 2026-05-07 20:39 | 38.79879 | -120.65571 | 31170 ft | 473 kts | 62° |
| 2026-05-07 20:39 | 38.82767 | -120.58003 | 31184 ft | 474 kts | 62° |
| 2026-05-07 20:40 | 38.85657 | -120.50427 | 31234 ft | 474 kts | 62° |
| 2026-05-07 20:40 | 38.88554 | -120.42821 | 31261 ft | 474 kts | 62° |
| 2026-05-07 20:41 | 38.91452 | -120.35211 | 31293 ft | 473 kts | 62° |
| 2026-05-07 20:41 | 38.94336 | -120.27629 | 31309 ft | 474 kts | 63° |
| 2026-05-07 20:42 | 38.97244 | -120.19977 | 31318 ft | 475 kts | 63° |
| 2026-05-07 20:42 | 39.00152 | -120.12322 | 31311 ft | 475 kts | 63° |
| 2026-05-07 20:43 | 39.03019 | -120.04675 | 31314 ft | 474 kts | 64° |
| 2026-05-07 20:43 | 39.05935 | -119.97043 | 31300 ft | 474 kts | 61° |
| 2026-05-07 20:44 | 39.09029 | -119.89481 | 31283 ft | 474 kts | 60° |
| 2026-05-07 20:44 | 39.12113 | -119.81968 | 31277 ft | 473 kts | 60° |
| 2026-05-07 20:45 | 39.15201 | -119.74443 | 31257 ft | 473 kts | 60° |
| 2026-05-07 20:45 | 39.18299 | -119.66885 | 31249 ft | 473 kts | 60° |
| 2026-05-07 20:46 | 39.21393 | -119.59326 | 31248 ft | 474 kts | 60° |
| 2026-05-07 20:46 | 39.24494 | -119.51730 | 31240 ft | 474 kts | 60° |
| 2026-05-07 20:47 | 39.27573 | -119.44164 | 31243 ft | 473 kts | 60° |
| 2026-05-07 20:47 | 39.30646 | -119.36587 | 31244 ft | 474 kts | 60° |
| 2026-05-07 20:48 | 39.33775 | -119.29079 | 31237 ft | 471 kts | 54° |
| 2026-05-07 20:48 | 39.38014 | -119.22560 | 31234 ft | 472 kts | 49° |
| 2026-05-07 20:49 | 39.42095 | -119.15800 | 31222 ft | 472 kts | 51° |
| 2026-05-07 20:49 | 39.46130 | -119.09031 | 31206 ft | 471 kts | 50° |
| 2026-05-07 20:50 | 39.50166 | -119.02249 | 31189 ft | 471 kts | 51° |
| 2026-05-07 20:50 | 39.54443 | -118.95790 | 31170 ft | 470 kts | 46° |
| 2026-05-07 20:50 | 39.56376 | -118.92325 | 31170 ft | 473 kts | 58° |
| 2026-05-07 20:51 | 39.58185 | -118.88799 | 31171 ft | 470 kts | 48° |
| 2026-05-07 20:51 | 39.62365 | -118.82171 | 31165 ft | 473 kts | 50° |
| 2026-05-07 20:52 | 39.66060 | -118.75101 | 31164 ft | 474 kts | 58° |
| 2026-05-07 20:52 | 39.69183 | -118.67458 | 31162 ft | 475 kts | 60° |
| 2026-05-07 20:53 | 39.72220 | -118.59801 | 31162 ft | 475 kts | 60° |
| 2026-05-07 20:53 | 39.75239 | -118.52140 | 31164 ft | 475 kts | 60° |
| 2026-05-07 20:54 | 39.78259 | -118.44470 | 31173 ft | 475 kts | 60° |
| 2026-05-07 20:54 | 39.81274 | -118.36796 | 31181 ft | 475 kts | 60° |
| 2026-05-07 20:55 | 39.84287 | -118.29114 | 31186 ft | 475 kts | 60° |
| 2026-05-07 20:55 | 39.87301 | -118.21415 | 31183 ft | 477 kts | 60° |
| 2026-05-07 20:56 | 39.90297 | -118.13689 | 31194 ft | 476 kts | 60° |
| 2026-05-07 20:56 | 39.93295 | -118.05920 | 31214 ft | 476 kts | 60° |
| 2026-05-07 20:57 | 39.96728 | -117.98625 | 31239 ft | 469 kts | 47° |
| 2026-05-07 20:57 | 40.00435 | -117.91514 | 31236 ft | 477 kts | 58° |
| 2026-05-07 20:58 | 40.03489 | -117.83828 | 31210 ft | 477 kts | 60° |
| 2026-05-07 20:58 | 40.06478 | -117.76076 | 31175 ft | 476 kts | 60° |
| 2026-05-07 20:59 | 40.09431 | -117.68307 | 31177 ft | 478 kts | 60° |
| 2026-05-07 20:59 | 40.12382 | -117.60518 | 31188 ft | 477 kts | 60° |
| 2026-05-07 21:00 | 40.15332 | -117.52719 | 31203 ft | 476 kts | 60° |
| 2026-05-07 21:00 | 40.18279 | -117.44911 | 31211 ft | 477 kts | 60° |
| 2026-05-07 21:01 | 40.21227 | -117.37094 | 31227 ft | 476 kts | 60° |
| 2026-05-07 21:01 | 40.24154 | -117.29307 | 31236 ft | 476 kts | 60° |
| 2026-05-07 21:02 | 40.27083 | -117.21500 | 31246 ft | 477 kts | 60° |
| 2026-05-07 21:02 | 40.30014 | -117.13661 | 31240 ft | 479 kts | 60° |
| 2026-05-07 21:03 | 40.32947 | -117.05802 | 31238 ft | 479 kts | 60° |
| 2026-05-07 21:03 | 40.35883 | -116.97926 | 31231 ft | 479 kts | 60° |
| 2026-05-07 21:04 | 40.38825 | -116.90022 | 31229 ft | 479 kts | 60° |
| 2026-05-07 21:04 | 40.41756 | -116.82125 | 31218 ft | 479 kts | 60° |
| 2026-05-07 21:05 | 40.44682 | -116.74238 | 31216 ft | 479 kts | 60° |
| 2026-05-07 21:05 | 40.47606 | -116.66335 | 31220 ft | 479 kts | 60° |
| 2026-05-07 21:06 | 40.50523 | -116.58437 | 31215 ft | 479 kts | 60° |
| 2026-05-07 21:06 | 40.53571 | -116.50634 | 31215 ft | 475 kts | 55° |
| 2026-05-07 21:06 | 40.55174 | -116.46838 | 31344 ft | 474 kts | 58° |
| 2026-05-07 21:07 | 40.56607 | -116.42925 | 31626 ft | 475 kts | 62° |
| 2026-05-07 21:07 | 40.57904 | -116.38903 | 31916 ft | 476 kts | 63° |
| 2026-05-07 21:07 | 40.59117 | -116.34854 | 32206 ft | 475 kts | 65° |
| 2026-05-07 21:07 | 40.60283 | -116.30796 | 32485 ft | 475 kts | 65° |
| 2026-05-07 21:08 | 40.61451 | -116.26706 | 32774 ft | 473 kts | 65° |
| 2026-05-07 21:08 | 40.62622 | -116.22638 | 33065 ft | 471 kts | 65° |
| 2026-05-07 21:08 | 40.63790 | -116.18599 | 33354 ft | 469 kts | 64° |
| 2026-05-07 21:08 | 40.64954 | -116.14578 | 33646 ft | 467 kts | 64° |
| 2026-05-07 21:09 | 40.66110 | -116.10578 | 33936 ft | 464 kts | 64° |
| 2026-05-07 21:09 | 40.67259 | -116.06597 | 34250 ft | 461 kts | 64° |
| 2026-05-07 21:09 | 40.68392 | -116.02664 | 34558 ft | 458 kts | 64° |
| 2026-05-07 21:09 | 40.69526 | -115.98717 | 34877 ft | 455 kts | 64° |
| 2026-05-07 21:10 | 40.70649 | -115.94801 | 35154 ft | 452 kts | 64° |
| 2026-05-07 21:10 | 40.72880 | -115.86997 | 35215 ft | 457 kts | 64° |
| 2026-05-07 21:11 | 40.75147 | -115.79068 | 35198 ft | 465 kts | 69° |
| 2026-05-07 21:11 | 40.76232 | -115.66068 | 35209 ft | 482 kts | 82° |
| 2026-05-07 21:12 | 40.76571 | -115.57159 | 35221 ft | 487 kts | 82° |
| 2026-05-07 21:12 | 40.76779 | -115.48141 | 35446 ft | 489 kts | 84° |
| 2026-05-07 21:13 | 40.76852 | -115.43640 | 35686 ft | 487 kts | 84° |
| 2026-05-07 21:13 | 40.76937 | -115.39176 | 35925 ft | 485 kts | 83° |
| 2026-05-07 21:13 | 40.77036 | -115.34722 | 36167 ft | 483 kts | 84° |
| 2026-05-07 21:13 | 40.77132 | -115.30321 | 36404 ft | 480 kts | 84° |
| 2026-05-07 21:14 | 40.77226 | -115.25911 | 36643 ft | 477 kts | 84° |
| 2026-05-07 21:14 | 40.77328 | -115.21543 | 36882 ft | 474 kts | 83° |
| 2026-05-07 21:14 | 40.77441 | -115.17225 | 37122 ft | 470 kts | 83° |
| 2026-05-07 21:14 | 40.77564 | -115.12902 | 37266 ft | 469 kts | 83° |
| 2026-05-07 21:15 | 40.77837 | -115.04255 | 37260 ft | 471 kts | 83° |
| 2026-05-07 21:15 | 40.78135 | -114.95565 | 37239 ft | 474 kts | 82° |
| 2026-05-07 21:16 | 40.78449 | -114.86827 | 37226 ft | 477 kts | 82° |
| 2026-05-07 21:16 | 40.78773 | -114.78023 | 37223 ft | 480 kts | 82° |
| 2026-05-07 21:17 | 40.79101 | -114.69184 | 37220 ft | 484 kts | 82° |
| 2026-05-07 21:17 | 40.79431 | -114.60266 | 37213 ft | 487 kts | 82° |
| 2026-05-07 21:18 | 40.79759 | -114.51295 | 37200 ft | 491 kts | 82° |
| 2026-05-07 21:18 | 40.80083 | -114.42260 | 37200 ft | 494 kts | 82° |
| 2026-05-07 21:19 | 40.80400 | -114.33175 | 37197 ft | 498 kts | 83° |
| 2026-05-07 21:19 | 40.80660 | -114.24016 | 37196 ft | 501 kts | 83° |
| 2026-05-07 21:20 | 40.80919 | -114.14773 | 37164 ft | 505 kts | 83° |
| 2026-05-07 21:20 | 40.81191 | -114.05450 | 37126 ft | 509 kts | 83° |
| 2026-05-07 21:21 | 40.81466 | -113.96094 | 37112 ft | 512 kts | 83° |
| 2026-05-07 21:21 | 40.81742 | -113.86661 | 37121 ft | 513 kts | 83° |
| 2026-05-07 21:22 | 40.82011 | -113.77226 | 37118 ft | 515 kts | 83° |
| 2026-05-07 21:22 | 40.82272 | -113.67759 | 37121 ft | 516 kts | 83° |
| 2026-05-07 21:23 | 40.82523 | -113.58261 | 37118 ft | 517 kts | 83° |
| 2026-05-07 21:23 | 40.82764 | -113.48754 | 37115 ft | 518 kts | 83° |
| 2026-05-07 21:24 | 40.82995 | -113.39199 | 37114 ft | 518 kts | 83° |
| 2026-05-07 21:24 | 40.83196 | -113.29733 | 37115 ft | 519 kts | 84° |
| 2026-05-07 21:25 | 40.83357 | -113.20186 | 37108 ft | 519 kts | 83° |
| 2026-05-07 21:25 | 40.83534 | -113.10676 | 37101 ft | 520 kts | 83° |
| 2026-05-07 21:26 | 40.83719 | -113.01103 | 37109 ft | 520 kts | 83° |
| 2026-05-07 21:26 | 40.83898 | -112.91541 | 37118 ft | 520 kts | 83° |
| 2026-05-07 21:27 | 40.84066 | -112.81995 | 37112 ft | 520 kts | 83° |
| 2026-05-07 21:27 | 40.84221 | -112.72454 | 37112 ft | 520 kts | 83° |
| 2026-05-07 21:28 | 40.84363 | -112.62926 | 37110 ft | 520 kts | 83° |
| 2026-05-07 21:28 | 40.84494 | -112.53394 | 37112 ft | 521 kts | 83° |
| 2026-05-07 21:29 | 40.84614 | -112.43854 | 37112 ft | 521 kts | 83° |
| 2026-05-07 21:29 | 40.84723 | -112.34331 | 37110 ft | 521 kts | 84° |
| 2026-05-07 21:30 | 40.84800 | -112.24798 | 37104 ft | 522 kts | 84° |
| 2026-05-07 21:30 | 40.84891 | -112.15256 | 37099 ft | 522 kts | 83° |
| 2026-05-07 21:31 | 40.84971 | -112.05724 | 37106 ft | 522 kts | 83° |
| 2026-05-07 21:31 | 40.85122 | -111.96460 | 37109 ft | 521 kts | 82° |
| 2026-05-07 21:32 | 40.84952 | -111.91856 | 37117 ft | 528 kts | 94° |
| 2026-05-07 21:32 | 40.84146 | -111.87173 | 37134 ft | 531 kts | 98° |
| 2026-05-07 21:32 | 40.83144 | -111.77747 | 37162 ft | 521 kts | 89° |
| 2026-05-07 21:33 | 40.82554 | -111.68443 | 37174 ft | 503 kts | 88° |
| 2026-05-07 21:33 | 40.82004 | -111.59300 | 37198 ft | 500 kts | 88° |
| 2026-05-07 21:34 | 40.81459 | -111.50161 | 37210 ft | 503 kts | 88° |
| 2026-05-07 21:34 | 40.80904 | -111.40933 | 37225 ft | 506 kts | 88° |
| 2026-05-07 21:35 | 40.80350 | -111.31687 | 37240 ft | 509 kts | 89° |
| 2026-05-07 21:35 | 40.79810 | -111.22349 | 37265 ft | 509 kts | 88° |
| 2026-05-07 21:36 | 40.79266 | -111.13066 | 37283 ft | 507 kts | 88° |
| 2026-05-07 21:36 | 40.79184 | -111.03845 | 37282 ft | 501 kts | 81° |
| 2026-05-07 21:37 | 40.79512 | -110.94594 | 37279 ft | 502 kts | 80° |
| 2026-05-07 21:37 | 40.79874 | -110.85434 | 37275 ft | 502 kts | 80° |
| 2026-05-07 21:38 | 40.80243 | -110.76213 | 37269 ft | 501 kts | 80° |
| 2026-05-07 21:38 | 40.80611 | -110.67005 | 37262 ft | 501 kts | 80° |
| 2026-05-07 21:39 | 40.80980 | -110.57787 | 37259 ft | 502 kts | 80° |
| 2026-05-07 21:39 | 40.81364 | -110.48567 | 37261 ft | 505 kts | 80° |
| 2026-05-07 21:40 | 40.81747 | -110.39296 | 37257 ft | 504 kts | 79° |
| 2026-05-07 21:40 | 40.82127 | -110.30049 | 37255 ft | 502 kts | 80° |
| 2026-05-07 21:41 | 40.82506 | -110.20784 | 37252 ft | 504 kts | 80° |
| 2026-05-07 21:41 | 40.82898 | -110.11486 | 37247 ft | 506 kts | 80° |
| 2026-05-07 21:42 | 40.83296 | -110.02186 | 37246 ft | 505 kts | 80° |
| 2026-05-07 21:42 | 40.83695 | -109.92913 | 37251 ft | 505 kts | 80° |
| 2026-05-07 21:43 | 40.84089 | -109.83606 | 37246 ft | 506 kts | 80° |
| 2026-05-07 21:43 | 40.84499 | -109.74293 | 37243 ft | 506 kts | 79° |
| 2026-05-07 21:44 | 40.84910 | -109.64975 | 37244 ft | 505 kts | 79° |
| 2026-05-07 21:44 | 40.85311 | -109.55710 | 37244 ft | 505 kts | 79° |
| 2026-05-07 21:45 | 40.85709 | -109.46414 | 37245 ft | 504 kts | 79° |
| 2026-05-07 21:45 | 40.86102 | -109.37138 | 37243 ft | 504 kts | 79° |
| 2026-05-07 21:46 | 40.86504 | -109.27870 | 37239 ft | 506 kts | 80° |
| 2026-05-07 21:46 | 40.86924 | -109.18558 | 37232 ft | 508 kts | 79° |
| 2026-05-07 21:47 | 40.87345 | -109.09217 | 37228 ft | 507 kts | 79° |
| 2026-05-07 21:47 | 40.87770 | -108.99921 | 37225 ft | 506 kts | 79° |
| 2026-05-07 21:48 | 40.88214 | -108.90625 | 37215 ft | 505 kts | 78° |
| 2026-05-07 21:48 | 40.88789 | -108.81362 | 37199 ft | 504 kts | 77° |
| 2026-05-07 21:49 | 40.89466 | -108.72112 | 37182 ft | 505 kts | 77° |
| 2026-05-07 21:49 | 40.90216 | -108.62835 | 37180 ft | 506 kts | 76° |
| 2026-05-07 21:50 | 40.91015 | -108.53570 | 37178 ft | 504 kts | 76° |
| 2026-05-07 21:50 | 40.91852 | -108.44341 | 37177 ft | 503 kts | 75° |
| 2026-05-07 21:51 | 40.92715 | -108.35119 | 37166 ft | 502 kts | 75° |
| 2026-05-07 21:51 | 40.93546 | -108.25957 | 37166 ft | 503 kts | 76° |
| 2026-05-07 21:52 | 40.94379 | -108.16730 | 37151 ft | 506 kts | 76° |
| 2026-05-07 21:52 | 40.95236 | -108.07457 | 37146 ft | 507 kts | 76° |
| 2026-05-07 21:53 | 40.96102 | -107.98198 | 37138 ft | 504 kts | 76° |
| 2026-05-07 21:53 | 40.96974 | -107.88977 | 37143 ft | 505 kts | 76° |
| 2026-05-07 21:54 | 40.97856 | -107.79681 | 37149 ft | 506 kts | 76° |
| 2026-05-07 21:54 | 40.98727 | -107.70448 | 37144 ft | 505 kts | 76° |
| 2026-05-07 21:55 | 40.99594 | -107.61235 | 37158 ft | 504 kts | 76° |
| 2026-05-07 21:55 | 41.00456 | -107.52007 | 37163 ft | 504 kts | 76° |
| 2026-05-07 21:56 | 41.01308 | -107.42793 | 37171 ft | 504 kts | 76° |
| 2026-05-07 21:56 | 41.02148 | -107.33584 | 37165 ft | 504 kts | 77° |
| 2026-05-07 21:57 | 41.02932 | -107.24359 | 37185 ft | 506 kts | 77° |
| 2026-05-07 21:57 | 41.03710 | -107.15099 | 37211 ft | 507 kts | 77° |
| 2026-05-07 21:58 | 41.04497 | -107.05824 | 37205 ft | 506 kts | 77° |
| 2026-05-07 21:58 | 41.05286 | -106.96562 | 37217 ft | 506 kts | 77° |
| 2026-05-07 21:59 | 41.06072 | -106.87314 | 37212 ft | 506 kts | 77° |
| 2026-05-07 21:59 | 41.06855 | -106.78054 | 37214 ft | 508 kts | 77° |
| 2026-05-07 22:00 | 41.07634 | -106.68732 | 37219 ft | 509 kts | 77° |
| 2026-05-07 22:00 | 41.08399 | -106.59437 | 36886 ft | 508 kts | 77° |
| 2026-05-07 22:01 | 41.08763 | -106.54948 | 37131 ft | 504 kts | 77° |
| 2026-05-07 22:01 | 41.09137 | -106.50330 | 37187 ft | 505 kts | 77° |
| 2026-05-07 22:01 | 41.09883 | -106.41035 | 37195 ft | 509 kts | 77° |
| 2026-05-07 22:02 | 41.10612 | -106.31709 | 37191 ft | 513 kts | 79° |
| 2026-05-07 22:02 | 41.11288 | -106.22290 | 37197 ft | 516 kts | 79° |
| 2026-05-07 22:03 | 41.11981 | -106.12798 | 37189 ft | 515 kts | 79° |
| 2026-05-07 22:03 | 41.12678 | -106.03413 | 37184 ft | 514 kts | 78° |
| 2026-05-07 22:04 | 41.13380 | -105.93950 | 37191 ft | 513 kts | 78° |
| 2026-05-07 22:04 | 41.14067 | -105.84578 | 37164 ft | 513 kts | 78° |
| 2026-05-07 22:05 | 41.14747 | -105.75151 | 37143 ft | 513 kts | 79° |
| 2026-05-07 22:05 | 41.15413 | -105.65762 | 37132 ft | 514 kts | 79° |
| 2026-05-07 22:06 | 41.16071 | -105.56291 | 37131 ft | 515 kts | 79° |
| 2026-05-07 22:06 | 41.16714 | -105.46850 | 37123 ft | 514 kts | 79° |
| 2026-05-07 22:07 | 41.17348 | -105.37388 | 37121 ft | 513 kts | 79° |
| 2026-05-07 22:07 | 41.17950 | -105.27931 | 37120 ft | 515 kts | 80° |
| 2026-05-07 22:08 | 41.18553 | -105.18413 | 37094 ft | 516 kts | 79° |
| 2026-05-07 22:08 | 41.19161 | -105.08889 | 37055 ft | 515 kts | 79° |
| 2026-05-07 22:09 | 41.19755 | -104.99433 | 37029 ft | 514 kts | 80° |
| 2026-05-07 22:09 | 41.20337 | -104.89968 | 37017 ft | 514 kts | 80° |
| 2026-05-07 22:10 | 41.20929 | -104.80497 | 36999 ft | 513 kts | 76° |
| 2026-05-07 22:10 | 41.22027 | -104.71186 | 37003 ft | 513 kts | 77° |
| 2026-05-07 22:11 | 41.22689 | -104.61700 | 37007 ft | 516 kts | 80° |
| 2026-05-07 22:11 | 41.23206 | -104.52174 | 37020 ft | 515 kts | 80° |
| 2026-05-07 22:12 | 41.23704 | -104.42693 | 37023 ft | 515 kts | 80° |
| 2026-05-07 22:12 | 41.24205 | -104.33203 | 37016 ft | 515 kts | 81° |
| 2026-05-07 22:13 | 41.24702 | -104.23686 | 37006 ft | 515 kts | 80° |
| 2026-05-07 22:13 | 41.25213 | -104.14195 | 37012 ft | 516 kts | 80° |
| 2026-05-07 22:14 | 41.25812 | -104.04678 | 36999 ft | 512 kts | 76° |
| 2026-05-07 22:14 | 41.27052 | -103.95431 | 36986 ft | 507 kts | 72° |
| 2026-05-07 22:15 | 41.28465 | -103.86177 | 36984 ft | 509 kts | 72° |
| 2026-05-07 22:15 | 41.29905 | -103.76935 | 36973 ft | 509 kts | 72° |
| 2026-05-07 22:16 | 41.31356 | -103.67722 | 36969 ft | 507 kts | 71° |
| 2026-05-07 22:16 | 41.32825 | -103.58519 | 36965 ft | 506 kts | 71° |
| 2026-05-07 22:17 | 41.34311 | -103.49330 | 36960 ft | 507 kts | 71° |
| 2026-05-07 22:17 | 41.35825 | -103.40110 | 36948 ft | 509 kts | 71° |
| 2026-05-07 22:18 | 41.38149 | -103.26348 | 36975 ft | 505 kts | 70° |
| 2026-05-07 22:19 | 41.39810 | -103.17245 | 36939 ft | 506 kts | 71° |
| 2026-05-07 22:19 | 41.41399 | -103.08066 | 36927 ft | 507 kts | 71° |
| 2026-05-07 22:20 | 41.43008 | -102.98886 | 36934 ft | 509 kts | 71° |
| 2026-05-07 22:20 | 41.45018 | -102.89920 | 36938 ft | 499 kts | 62° |
| 2026-05-07 22:21 | 41.47729 | -102.81425 | 36925 ft | 499 kts | 62° |
| 2026-05-07 22:21 | 41.50306 | -102.72762 | 36928 ft | 503 kts | 63° |
| 2026-05-07 22:22 | 41.52716 | -102.63988 | 36925 ft | 504 kts | 64° |
| 2026-05-07 22:22 | 41.55043 | -102.55119 | 36923 ft | 505 kts | 65° |
| 2026-05-07 22:23 | 41.57323 | -102.46217 | 36932 ft | 505 kts | 65° |
| 2026-05-07 22:23 | 41.59544 | -102.37312 | 36925 ft | 505 kts | 66° |
| 2026-05-07 22:24 | 41.61734 | -102.28356 | 36926 ft | 507 kts | 67° |
| 2026-05-07 22:24 | 41.63892 | -102.19332 | 36919 ft | 509 kts | 67° |
| 2026-05-07 22:25 | 41.66077 | -102.10272 | 36917 ft | 508 kts | 67° |
| 2026-05-07 22:25 | 41.68246 | -102.01265 | 36918 ft | 507 kts | 67° |
| 2026-05-07 22:26 | 41.70415 | -101.92250 | 36915 ft | 507 kts | 67° |
| 2026-05-07 22:26 | 41.72581 | -101.83206 | 36913 ft | 509 kts | 67° |
| 2026-05-07 22:27 | 41.74732 | -101.74157 | 36914 ft | 510 kts | 67° |
| 2026-05-07 22:27 | 41.76876 | -101.65081 | 36915 ft | 509 kts | 67° |
| 2026-05-07 22:28 | 41.79002 | -101.56040 | 36917 ft | 508 kts | 68° |
| 2026-05-07 22:28 | 41.81117 | -101.46992 | 36915 ft | 509 kts | 68° |
| 2026-05-07 22:29 | 41.83215 | -101.37955 | 36913 ft | 509 kts | 68° |
| 2026-05-07 22:29 | 41.85291 | -101.28870 | 36912 ft | 509 kts | 69° |
| 2026-05-07 22:30 | 41.87353 | -101.19791 | 36907 ft | 510 kts | 69° |
| 2026-05-07 22:30 | 41.89443 | -101.10664 | 36903 ft | 511 kts | 69° |
| 2026-05-07 22:31 | 41.91527 | -101.01502 | 36897 ft | 512 kts | 69° |
| 2026-05-07 22:31 | 41.93598 | -100.92334 | 36897 ft | 512 kts | 69° |
| 2026-05-07 22:32 | 41.95655 | -100.83168 | 36906 ft | 511 kts | 69° |
| 2026-05-07 22:32 | 41.97749 | -100.74059 | 36911 ft | 509 kts | 66° |
| 2026-05-07 22:33 | 41.99783 | -100.64870 | 36915 ft | 514 kts | 71° |
| 2026-05-07 22:33 | 42.01548 | -100.55528 | 36920 ft | 516 kts | 71° |
| 2026-05-07 22:34 | 42.03295 | -100.46149 | 36912 ft | 514 kts | 71° |
| 2026-05-07 22:34 | 42.05033 | -100.36842 | 36906 ft | 513 kts | 71° |
| 2026-05-07 22:35 | 42.06789 | -100.27514 | 36905 ft | 513 kts | 72° |
| 2026-05-07 22:35 | 42.08545 | -100.18191 | 36903 ft | 515 kts | 72° |
| 2026-05-07 22:36 | 42.10316 | -100.08834 | 36903 ft | 516 kts | 72° |
| 2026-05-07 22:36 | 42.12111 | -99.99466 | 36900 ft | 515 kts | 72° |
| 2026-05-07 22:37 | 42.13922 | -99.90105 | 36899 ft | 515 kts | 71° |
| 2026-05-07 22:37 | 42.15721 | -99.80772 | 36900 ft | 515 kts | 71° |
| 2026-05-07 22:38 | 42.17526 | -99.71418 | 36898 ft | 515 kts | 71° |
| 2026-05-07 22:38 | 42.19355 | -99.62022 | 36900 ft | 515 kts | 71° |
| 2026-05-07 22:39 | 42.21194 | -99.52639 | 36903 ft | 516 kts | 71° |
| 2026-05-07 22:39 | 42.23050 | -99.43213 | 36905 ft | 516 kts | 71° |
| 2026-05-07 22:40 | 42.24904 | -99.33827 | 36899 ft | 516 kts | 71° |
| 2026-05-07 22:40 | 42.26758 | -99.24455 | 36895 ft | 515 kts | 71° |
| 2026-05-07 22:41 | 42.28625 | -99.15109 | 36893 ft | 515 kts | 71° |
| 2026-05-07 22:41 | 42.30503 | -99.05773 | 36891 ft | 514 kts | 71° |
| 2026-05-07 22:42 | 42.32406 | -98.96373 | 36891 ft | 515 kts | 71° |
| 2026-05-07 22:42 | 42.34301 | -98.87037 | 36889 ft | 514 kts | 70° |
| 2026-05-07 22:43 | 42.36425 | -98.77807 | 36895 ft | 512 kts | 68° |
| 2026-05-07 22:43 | 42.38657 | -98.68601 | 36899 ft | 513 kts | 68° |
| 2026-05-07 22:44 | 42.40911 | -98.59408 | 36899 ft | 514 kts | 68° |
| 2026-05-07 22:44 | 42.43169 | -98.50194 | 36894 ft | 514 kts | 67° |
| 2026-05-07 22:45 | 42.45437 | -98.40987 | 36887 ft | 513 kts | 67° |
| 2026-05-07 22:45 | 42.47716 | -98.31803 | 36884 ft | 514 kts | 68° |
| 2026-05-07 22:46 | 42.50010 | -98.22621 | 36884 ft | 513 kts | 68° |
| 2026-05-07 22:46 | 42.52309 | -98.13446 | 36886 ft | 512 kts | 68° |
| 2026-05-07 22:47 | 42.54612 | -98.04299 | 36887 ft | 512 kts | 67° |
| 2026-05-07 22:47 | 42.56918 | -97.95170 | 36886 ft | 511 kts | 67° |
| 2026-05-07 22:48 | 42.59234 | -97.85995 | 36889 ft | 512 kts | 67° |
| 2026-05-07 22:48 | 42.61549 | -97.76837 | 36890 ft | 512 kts | 67° |
| 2026-05-07 22:49 | 42.63888 | -97.67650 | 36889 ft | 513 kts | 67° |
| 2026-05-07 22:49 | 42.66235 | -97.58489 | 36887 ft | 512 kts | 66° |
| 2026-05-07 22:50 | 42.68582 | -97.49333 | 36885 ft | 511 kts | 66° |
| 2026-05-07 22:50 | 42.70917 | -97.40255 | 36894 ft | 512 kts | 66° |
| 2026-05-07 22:51 | 42.73270 | -97.31131 | 36892 ft | 511 kts | 67° |
| 2026-05-07 22:51 | 42.75855 | -97.22155 | 36891 ft | 509 kts | 63° |
| 2026-05-07 22:52 | 42.77958 | -97.12909 | 36886 ft | 514 kts | 73° |
| 2026-05-07 22:52 | 42.79625 | -97.03387 | 36895 ft | 516 kts | 73° |
| 2026-05-07 22:53 | 42.81251 | -96.93821 | 36889 ft | 516 kts | 73° |
| 2026-05-07 22:53 | 42.82987 | -96.84365 | 36893 ft | 514 kts | 70° |
| 2026-05-07 22:54 | 42.84992 | -96.75003 | 36876 ft | 514 kts | 70° |
| 2026-05-07 22:54 | 42.87001 | -96.65615 | 36884 ft | 515 kts | 70° |
| 2026-05-07 22:55 | 42.88989 | -96.56211 | 36879 ft | 516 kts | 70° |
| 2026-05-07 22:55 | 42.90963 | -96.46819 | 36871 ft | 515 kts | 70° |
| 2026-05-07 22:56 | 42.92930 | -96.37383 | 36874 ft | 515 kts | 70° |
| 2026-05-07 22:56 | 42.94852 | -96.27965 | 36877 ft | 517 kts | 71° |
| 2026-05-07 22:57 | 42.96766 | -96.18458 | 36878 ft | 518 kts | 71° |
| 2026-05-07 22:57 | 42.98691 | -96.08986 | 36875 ft | 517 kts | 70° |
| 2026-05-07 22:58 | 43.00622 | -95.99489 | 36872 ft | 517 kts | 70° |
| 2026-05-07 22:58 | 43.02535 | -95.90012 | 36874 ft | 518 kts | 70° |
| 2026-05-07 22:59 | 43.04444 | -95.80490 | 36722 ft | 521 kts | 71° |
| 2026-05-07 22:59 | 43.05400 | -95.75695 | 36492 ft | 521 kts | 71° |
| 2026-05-07 22:59 | 43.06344 | -95.70932 | 36261 ft | 516 kts | 70° |
| 2026-05-07 22:59 | 43.07274 | -95.66216 | 36037 ft | 509 kts | 70° |
| 2026-05-07 23:00 | 43.08191 | -95.61565 | 35858 ft | 504 kts | 70° |
| 2026-05-07 23:00 | 43.09100 | -95.56942 | 35698 ft | 502 kts | 70° |
| 2026-05-07 23:00 | 43.10006 | -95.52320 | 35508 ft | 502 kts | 70° |
| 2026-05-07 23:00 | 43.10906 | -95.47704 | 35319 ft | 503 kts | 70° |
| 2026-05-07 23:01 | 43.11805 | -95.43070 | 35128 ft | 503 kts | 70° |
| 2026-05-07 23:01 | 43.12702 | -95.38434 | 34935 ft | 501 kts | 70° |
| 2026-05-07 23:01 | 43.13580 | -95.33876 | 34742 ft | 498 kts | 71° |
| 2026-05-07 23:01 | 43.14450 | -95.29300 | 34551 ft | 496 kts | 70° |
| 2026-05-07 23:02 | 43.15310 | -95.24754 | 34339 ft | 495 kts | 71° |
| 2026-05-07 23:02 | 43.15979 | -95.20145 | 34084 ft | 496 kts | 77° |
| 2026-05-07 23:02 | 43.16419 | -95.15429 | 33827 ft | 496 kts | 80° |
| 2026-05-07 23:02 | 43.16706 | -95.10727 | 33572 ft | 495 kts | 82° |
| 2026-05-07 23:03 | 43.16887 | -95.05995 | 33314 ft | 495 kts | 84° |
| 2026-05-07 23:03 | 43.16968 | -95.01286 | 33058 ft | 494 kts | 85° |
| 2026-05-07 23:03 | 43.16969 | -94.96593 | 32806 ft | 494 kts | 86° |
| 2026-05-07 23:03 | 43.16911 | -94.91895 | 32552 ft | 493 kts | 88° |
| 2026-05-07 23:04 | 43.16811 | -94.87182 | 32295 ft | 492 kts | 88° |
| 2026-05-07 23:04 | 43.16682 | -94.82501 | 32036 ft | 491 kts | 89° |
| 2026-05-07 23:04 | 43.16532 | -94.77847 | 31783 ft | 489 kts | 89° |
| 2026-05-07 23:04 | 43.16368 | -94.73191 | 31525 ft | 486 kts | 89° |
| 2026-05-07 23:05 | 43.16194 | -94.68542 | 31278 ft | 485 kts | 89° |
| 2026-05-07 23:05 | 43.16015 | -94.63953 | 31019 ft | 483 kts | 89° |
| 2026-05-07 23:05 | 43.15830 | -94.59371 | 30907 ft | 479 kts | 89° |
| 2026-05-07 23:06 | 43.15449 | -94.50211 | 30880 ft | 481 kts | 89° |
| 2026-05-07 23:06 | 43.15055 | -94.41043 | 30878 ft | 485 kts | 89° |
| 2026-05-07 23:07 | 43.14635 | -94.31834 | 30885 ft | 484 kts | 90° |
| 2026-05-07 23:07 | 43.14170 | -94.22634 | 30882 ft | 484 kts | 90° |
| 2026-05-07 23:08 | 43.13723 | -94.13411 | 30879 ft | 485 kts | 89° |
| 2026-05-07 23:08 | 43.13277 | -94.04132 | 30882 ft | 486 kts | 89° |
| 2026-05-07 23:09 | 43.12821 | -93.94858 | 30877 ft | 486 kts | 90° |
| 2026-05-07 23:09 | 43.12354 | -93.85584 | 30875 ft | 486 kts | 89° |
| 2026-05-07 23:10 | 43.11877 | -93.76333 | 30873 ft | 487 kts | 90° |
| 2026-05-07 23:10 | 43.11386 | -93.67081 | 30873 ft | 487 kts | 89° |
| 2026-05-07 23:11 | 43.10882 | -93.57780 | 30885 ft | 489 kts | 90° |
| 2026-05-07 23:11 | 43.10365 | -93.48486 | 30885 ft | 489 kts | 89° |
| 2026-05-07 23:12 | 43.09834 | -93.39166 | 30884 ft | 489 kts | 90° |
| 2026-05-07 23:12 | 43.09180 | -93.29971 | 30890 ft | 492 kts | 96° |
| 2026-05-07 23:13 | 43.07767 | -93.20729 | 30887 ft | 496 kts | 100° |
| 2026-05-07 23:13 | 43.06215 | -93.11566 | 30876 ft | 495 kts | 100° |
| 2026-05-07 23:14 | 43.04645 | -93.02374 | 30876 ft | 494 kts | 100° |
| 2026-05-07 23:14 | 43.03093 | -92.93243 | 30875 ft | 496 kts | 99° |
| 2026-05-07 23:15 | 43.01543 | -92.84044 | 30879 ft | 495 kts | 99° |
| 2026-05-07 23:15 | 43.00007 | -92.74864 | 30889 ft | 497 kts | 99° |
| 2026-05-07 23:16 | 42.98474 | -92.65640 | 30893 ft | 497 kts | 99° |
| 2026-05-07 23:16 | 42.96951 | -92.56427 | 30893 ft | 496 kts | 99° |
| 2026-05-07 23:17 | 42.95431 | -92.47221 | 30888 ft | 498 kts | 99° |
| 2026-05-07 23:17 | 42.93914 | -92.38017 | 30881 ft | 497 kts | 99° |
| 2026-05-07 23:18 | 42.92413 | -92.28834 | 30879 ft | 498 kts | 99° |
| 2026-05-07 23:18 | 42.90922 | -92.19617 | 30881 ft | 497 kts | 99° |
| 2026-05-07 23:19 | 42.89457 | -92.10472 | 30884 ft | 498 kts | 99° |
| 2026-05-07 23:19 | 42.87995 | -92.01258 | 30882 ft | 498 kts | 99° |
| 2026-05-07 23:20 | 42.86538 | -91.92061 | 30707 ft | 504 kts | 99° |
| 2026-05-07 23:20 | 42.85799 | -91.87424 | 30430 ft | 504 kts | 98° |
| 2026-05-07 23:20 | 42.85058 | -91.82795 | 30137 ft | 497 kts | 99° |
| 2026-05-07 23:20 | 42.84326 | -91.78244 | 29818 ft | 490 kts | 98° |
| 2026-05-07 23:21 | 42.83593 | -91.73727 | 29485 ft | 487 kts | 99° |
| 2026-05-07 23:21 | 42.82873 | -91.69276 | 29155 ft | 486 kts | 98° |
| 2026-05-07 23:21 | 42.82152 | -91.64786 | 28841 ft | 485 kts | 98° |
| 2026-05-07 23:21 | 42.81445 | -91.60359 | 28528 ft | 483 kts | 98° |
| 2026-05-07 23:22 | 42.80738 | -91.55913 | 28217 ft | 480 kts | 98° |
| 2026-05-07 23:22 | 42.80037 | -91.51523 | 27921 ft | 477 kts | 98° |
| 2026-05-07 23:22 | 42.79330 | -91.47130 | 27615 ft | 474 kts | 98° |
| 2026-05-07 23:22 | 42.78626 | -91.42783 | 27314 ft | 472 kts | 98° |
| 2026-05-07 23:23 | 42.77918 | -91.38429 | 27014 ft | 470 kts | 98° |
| 2026-05-07 23:23 | 42.77216 | -91.34141 | 26711 ft | 468 kts | 99° |
| 2026-05-07 23:23 | 42.76532 | -91.29941 | 26414 ft | 467 kts | 98° |
| 2026-05-07 23:23 | 42.75831 | -91.25629 | 26106 ft | 465 kts | 98° |
| 2026-05-07 23:24 | 42.75130 | -91.21341 | 25798 ft | 461 kts | 98° |
| 2026-05-07 23:24 | 42.74439 | -91.17122 | 25505 ft | 459 kts | 98° |
| 2026-05-07 23:24 | 42.73740 | -91.12896 | 25196 ft | 457 kts | 98° |
| 2026-05-07 23:24 | 42.73039 | -91.08673 | 24881 ft | 455 kts | 98° |
| 2026-05-07 23:25 | 42.72342 | -91.04476 | 24596 ft | 453 kts | 98° |
| 2026-05-07 23:25 | 42.71648 | -91.00310 | 24298 ft | 450 kts | 98° |
| 2026-05-07 23:25 | 42.70958 | -90.96163 | 24003 ft | 449 kts | 98° |
| 2026-05-07 23:25 | 42.70272 | -90.92042 | 23700 ft | 445 kts | 96° |
| 2026-05-07 23:26 | 42.69743 | -90.87913 | 23394 ft | 441 kts | 94° |
| 2026-05-07 23:26 | 42.69269 | -90.83784 | 23121 ft | 437 kts | 94° |
| 2026-05-07 23:26 | 42.68826 | -90.79721 | 22835 ft | 434 kts | 93° |
| 2026-05-07 23:26 | 42.68427 | -90.75665 | 22555 ft | 431 kts | 92° |
| 2026-05-07 23:27 | 42.67745 | -90.67614 | 21974 ft | 426 kts | 91° |
| 2026-05-07 23:27 | 42.67437 | -90.63641 | 21713 ft | 422 kts | 91° |
| 2026-05-07 23:27 | 42.67151 | -90.59692 | 21411 ft | 419 kts | 91° |
| 2026-05-07 23:28 | 42.66865 | -90.55751 | 21163 ft | 417 kts | 91° |
| 2026-05-07 23:28 | 42.66582 | -90.51811 | 20875 ft | 414 kts | 91° |
| 2026-05-07 23:28 | 42.66311 | -90.47944 | 20614 ft | 412 kts | 91° |
| 2026-05-07 23:28 | 42.66047 | -90.44072 | 20350 ft | 409 kts | 91° |
| 2026-05-07 23:29 | 42.65785 | -90.40245 | 20088 ft | 407 kts | 91° |
| 2026-05-07 23:29 | 42.65519 | -90.36397 | 19833 ft | 406 kts | 91° |
| 2026-05-07 23:29 | 42.65251 | -90.32602 | 19625 ft | 402 kts | 92° |
| 2026-05-07 23:29 | 42.64968 | -90.28838 | 19362 ft | 400 kts | 92° |
| 2026-05-07 23:30 | 42.64688 | -90.25086 | 19119 ft | 398 kts | 92° |
| 2026-05-07 23:30 | 42.64409 | -90.21330 | 18885 ft | 395 kts | 92° |
| 2026-05-07 23:30 | 42.64139 | -90.17630 | 18637 ft | 393 kts | 92° |
| 2026-05-07 23:30 | 42.63873 | -90.13954 | 18382 ft | 391 kts | 93° |
| 2026-05-07 23:31 | 42.63609 | -90.10299 | 18125 ft | 389 kts | 93° |
| 2026-05-07 23:31 | 42.63345 | -90.06634 | 17876 ft | 388 kts | 93° |
| 2026-05-07 23:31 | 42.63082 | -90.02998 | 17636 ft | 386 kts | 93° |
| 2026-05-07 23:31 | 42.62820 | -89.99381 | 17381 ft | 385 kts | 93° |
| 2026-05-07 23:32 | 42.62556 | -89.95785 | 17133 ft | 383 kts | 93° |
| 2026-05-07 23:32 | 42.62291 | -89.92190 | 16888 ft | 382 kts | 93° |
| 2026-05-07 23:32 | 42.62027 | -89.88623 | 16645 ft | 380 kts | 93° |
| 2026-05-07 23:32 | 42.61762 | -89.85061 | 16400 ft | 379 kts | 93° |
| 2026-05-07 23:33 | 42.61497 | -89.81517 | 16150 ft | 377 kts | 93° |
| 2026-05-07 23:33 | 42.61230 | -89.77978 | 15901 ft | 376 kts | 93° |
| 2026-05-07 23:33 | 42.60963 | -89.74466 | 15670 ft | 374 kts | 93° |
| 2026-05-07 23:33 | 42.60696 | -89.70970 | 15400 ft | 372 kts | 93° |
| 2026-05-07 23:34 | 42.60429 | -89.67491 | 15122 ft | 371 kts | 93° |
| 2026-05-07 23:34 | 42.60158 | -89.63989 | 14968 ft | 369 kts | 93° |
| 2026-05-07 23:34 | 42.59888 | -89.60537 | 14900 ft | 368 kts | 93° |
| 2026-05-07 23:34 | 42.59618 | -89.57075 | 14898 ft | 370 kts | 94° |
| 2026-05-07 23:35 | 42.59344 | -89.53607 | 14898 ft | 370 kts | 93° |
| 2026-05-07 23:35 | 42.59066 | -89.50114 | 14898 ft | 370 kts | 93° |
| 2026-05-07 23:35 | 42.58790 | -89.46652 | 14887 ft | 370 kts | 93° |
| 2026-05-07 23:35 | 42.58511 | -89.43181 | 14894 ft | 370 kts | 93° |
| 2026-05-07 23:36 | 42.58230 | -89.39712 | 14923 ft | 371 kts | 93° |
| 2026-05-07 23:36 | 42.57948 | -89.36240 | 14878 ft | 369 kts | 94° |
| 2026-05-07 23:36 | 42.57659 | -89.32774 | 14886 ft | 371 kts | 95° |
| 2026-05-07 23:36 | 42.57366 | -89.29294 | 14889 ft | 370 kts | 94° |
| 2026-05-07 23:37 | 42.57177 | -89.25824 | 14870 ft | 368 kts | 90° |
| 2026-05-07 23:37 | 42.57047 | -89.22341 | 14887 ft | 369 kts | 90° |
| 2026-05-07 23:37 | 42.56929 | -89.18859 | 14891 ft | 369 kts | 90° |
| 2026-05-07 23:37 | 42.56811 | -89.15386 | 14889 ft | 370 kts | 90° |
| 2026-05-07 23:38 | 42.56563 | -89.11918 | 14890 ft | 372 kts | 101° |
| 2026-05-07 23:38 | 42.55908 | -89.08490 | 14858 ft | 375 kts | 105° |
| 2026-05-07 23:38 | 42.55170 | -89.05111 | 14792 ft | 373 kts | 105° |
| 2026-05-07 23:38 | 42.54422 | -89.01743 | 14723 ft | 371 kts | 106° |
| 2026-05-07 23:39 | 42.53677 | -88.98385 | 14652 ft | 372 kts | 105° |
| 2026-05-07 23:39 | 42.52931 | -88.95020 | 14613 ft | 371 kts | 105° |
| 2026-05-07 23:39 | 42.52187 | -88.91667 | 14476 ft | 372 kts | 105° |
| 2026-05-07 23:39 | 42.51445 | -88.88305 | 14230 ft | 371 kts | 105° |
| 2026-05-07 23:40 | 42.50716 | -88.84987 | 13967 ft | 365 kts | 105° |
| 2026-05-07 23:40 | 42.49992 | -88.81671 | 13717 ft | 365 kts | 105° |
| 2026-05-07 23:40 | 42.49275 | -88.78379 | 13476 ft | 364 kts | 105° |
| 2026-05-07 23:40 | 42.48563 | -88.75103 | 13211 ft | 362 kts | 105° |
| 2026-05-07 23:41 | 42.47859 | -88.71857 | 12901 ft | 360 kts | 105° |
| 2026-05-07 23:41 | 42.47148 | -88.68594 | 12667 ft | 359 kts | 107° |
| 2026-05-07 23:41 | 42.46099 | -88.65558 | 12401 ft | 357 kts | 123° |
| 2026-05-07 23:41 | 42.44726 | -88.62760 | 12146 ft | 356 kts | 126° |
| 2026-05-07 23:42 | 42.43309 | -88.60011 | 11867 ft | 355 kts | 126° |
| 2026-05-07 23:42 | 42.41885 | -88.57270 | 11602 ft | 352 kts | 126° |
| 2026-05-07 23:42 | 42.40479 | -88.54565 | 11338 ft | 350 kts | 126° |
| 2026-05-07 23:42 | 42.39081 | -88.51870 | 11070 ft | 349 kts | 126° |
| 2026-05-07 23:43 | 42.37689 | -88.49184 | 10801 ft | 347 kts | 126° |
| 2026-05-07 23:43 | 42.36300 | -88.46500 | 10531 ft | 346 kts | 126° |
| 2026-05-07 23:43 | 42.34920 | -88.43837 | 10256 ft | 346 kts | 126° |
| 2026-05-07 23:43 | 42.33544 | -88.41173 | 9983 ft | 345 kts | 126° |
| 2026-05-07 23:44 | 42.32178 | -88.38525 | 9717 ft | 343 kts | 126° |
| 2026-05-07 23:44 | 42.30807 | -88.35873 | 9452 ft | 340 kts | 126° |
| 2026-05-07 23:44 | 42.29458 | -88.33264 | 9186 ft | 339 kts | 126° |
| 2026-05-07 23:44 | 42.28125 | -88.30680 | 8921 ft | 333 kts | 126° |
| 2026-05-07 23:45 | 42.26773 | -88.28173 | 8647 ft | 326 kts | 130° |
| 2026-05-07 23:45 | 42.25353 | -88.25795 | 8387 ft | 320 kts | 131° |
| 2026-05-07 23:45 | 42.23959 | -88.23487 | 8109 ft | 314 kts | 131° |
| 2026-05-07 23:45 | 42.22592 | -88.21229 | 7925 ft | 306 kts | 131° |
| 2026-05-07 23:46 | 42.21245 | -88.19004 | 7892 ft | 308 kts | 131° |
| 2026-05-07 23:46 | 42.19889 | -88.16764 | 7902 ft | 308 kts | 131° |
| 2026-05-07 23:46 | 42.18548 | -88.14571 | 7883 ft | 296 kts | 134° |
| 2026-05-07 23:46 | 42.17178 | -88.12568 | 7887 ft | 287 kts | 136° |
| 2026-05-07 23:47 | 42.15804 | -88.10617 | 7885 ft | 287 kts | 136° |
| 2026-05-07 23:47 | 42.14432 | -88.08669 | 7889 ft | 287 kts | 136° |
| 2026-05-07 23:47 | 42.13050 | -88.06710 | 7892 ft | 288 kts | 136° |
| 2026-05-07 23:47 | 42.11654 | -88.04774 | 7895 ft | 287 kts | 140° |
| 2026-05-07 23:48 | 42.10180 | -88.02944 | 7897 ft | 286 kts | 141° |
| 2026-05-07 23:48 | 42.08685 | -88.01129 | 7903 ft | 287 kts | 141° |
| 2026-05-07 23:48 | 42.07195 | -87.99326 | 7901 ft | 287 kts | 141° |
| 2026-05-07 23:48 | 42.05710 | -87.97524 | 7902 ft | 288 kts | 141° |
| 2026-05-07 23:49 | 42.04221 | -87.95712 | 7903 ft | 288 kts | 141° |
| 2026-05-07 23:49 | 42.02738 | -87.93903 | 7902 ft | 288 kts | 141° |
| 2026-05-07 23:49 | 42.01255 | -87.92086 | 7902 ft | 287 kts | 141° |
| 2026-05-07 23:49 | 41.99777 | -87.90271 | 7904 ft | 287 kts | 141° |
| 2026-05-07 23:50 | 41.98300 | -87.88456 | 7905 ft | 286 kts | 141° |
| 2026-05-07 23:50 | 41.96835 | -87.86658 | 7894 ft | 287 kts | 141° |
| 2026-05-07 23:50 | 41.95347 | -87.84833 | 7686 ft | 290 kts | 141° |
| 2026-05-07 23:50 | 41.93962 | -87.82918 | 7425 ft | 288 kts | 123° |
| 2026-05-07 23:51 | 41.93308 | -87.80391 | 7175 ft | 288 kts | 94° |
| 2026-05-07 23:51 | 41.93193 | -87.77720 | 6926 ft | 286 kts | 89° |
| 2026-05-07 23:51 | 41.93147 | -87.75062 | 6674 ft | 284 kts | 89° |
| 2026-05-07 23:51 | 41.93110 | -87.72418 | 6420 ft | 284 kts | 89° |
| 2026-05-07 23:52 | 41.93076 | -87.69768 | 6166 ft | 282 kts | 89° |
| 2026-05-07 23:52 | 41.93044 | -87.67148 | 5913 ft | 278 kts | 89° |
| 2026-05-07 23:52 | 41.93015 | -87.64571 | 5661 ft | 275 kts | 89° |
| 2026-05-07 23:52 | 41.92989 | -87.62033 | 5411 ft | 271 kts | 88° |
| 2026-05-07 23:53 | 41.92961 | -87.59516 | 5159 ft | 268 kts | 88° |
| 2026-05-07 23:53 | 41.92928 | -87.57034 | 4964 ft | 262 kts | 88° |
| 2026-05-07 23:53 | 41.92893 | -87.54648 | 4914 ft | 250 kts | 88° |
| 2026-05-07 23:53 | 41.92859 | -87.52333 | 4873 ft | 251 kts | 88° |
| 2026-05-07 23:54 | 41.93159 | -87.50077 | 4712 ft | 242 kts | 56° |
| 2026-05-07 23:54 | 41.94272 | -87.48536 | 4531 ft | 225 kts | 18° |
| 2026-05-07 23:54 | 41.95742 | -87.48119 | 4373 ft | 214 kts | 357° |
| 2026-05-07 23:54 | 41.97222 | -87.48056 | 4244 ft | 212 kts | 355° |
| 2026-05-07 23:55 | 41.98702 | -87.48031 | 4117 ft | 211 kts | 352° |
| 2026-05-07 23:55 | 42.00022 | -87.48649 | 3968 ft | 200 kts | 315° |
| 2026-05-07 23:55 | 42.00650 | -87.50220 | 3903 ft | 194 kts | 275° |
| 2026-05-07 23:55 | 42.00302 | -87.51961 | 3904 ft | 203 kts | 237° |
| 2026-05-07 23:56 | 41.99249 | -87.53224 | 3895 ft | 198 kts | 231° |
| 2026-05-07 23:56 | 41.98699 | -87.54774 | 3911 ft | 183 kts | 272° |
| 2026-05-07 23:56 | 41.98749 | -87.56405 | 3894 ft | 167 kts | 275° |
| 2026-05-07 23:56 | 41.98775 | -87.57925 | 3887 ft | 160 kts | 274° |
| 2026-05-07 23:57 | 41.98785 | -87.59436 | 3890 ft | 162 kts | 274° |
| 2026-05-07 23:57 | 41.98790 | -87.60952 | 3892 ft | 162 kts | 273° |
| 2026-05-07 23:57 | 41.98791 | -87.62453 | 3893 ft | 162 kts | 273° |
| 2026-05-07 23:57 | 41.98794 | -87.63986 | 3892 ft | 164 kts | 273° |
| 2026-05-07 23:58 | 41.98797 | -87.65516 | 3888 ft | 163 kts | 274° |
| 2026-05-07 23:58 | 41.98799 | -87.67033 | 3721 ft | 159 kts | 274° |
| 2026-05-07 23:58 | 41.98799 | -87.68464 | 3529 ft | 148 kts | 274° |
| 2026-05-07 23:58 | 41.98801 | -87.69792 | 3480 ft | 141 kts | 274° |
| 2026-05-07 23:59 | 41.98808 | -87.71172 | 3253 ft | 147 kts | 275° |
| 2026-05-07 23:59 | 41.98811 | -87.72525 | 3033 ft | 145 kts | 274° |
| 2026-05-07 23:59 | 41.98814 | -87.73889 | 2859 ft | 145 kts | 274° |
| 2026-05-07 23:59 | 41.98817 | -87.75254 | 2668 ft | 146 kts | 273° |
| 2026-05-08 00:00 | 41.98819 | -87.76620 | 2468 ft | 147 kts | 272° |
| 2026-05-08 00:00 | 41.98820 | -87.77984 | 2278 ft | 147 kts | 272° |
| 2026-05-08 00:00 | 41.98822 | -87.79366 | 2084 ft | 148 kts | 272° |
| 2026-05-08 00:00 | 41.98823 | -87.80746 | 1890 ft | 149 kts | 271° |
| 2026-05-08 00:01 | 41.98825 | -87.82134 | 1687 ft | 150 kts | 271° |
| 2026-05-08 00:01 | 41.98825 | -87.83521 | 1479 ft | 151 kts | 270° |
| 2026-05-08 00:01 | 41.98818 | -87.84931 | 1266 ft | 152 kts | 270° |
| 2026-05-08 00:01 | 41.98821 | -87.86331 | 1093 ft | 152 kts | 270° |
| 2026-05-08 00:02 | 41.98833 | -87.87746 | 916 ft | 154 kts | 269° |
| 2026-05-08 00:02 | 41.98831 | -87.89174 | 699 ft | 156 kts | 269° |
| 2026-05-08 00:02 | 41.98834 | -87.90573 | 657 ft | 139 kts | 268° |
| 2026-05-08 00:02 | 41.98828 | -87.91592 | 665 ft | 58 kts | 270° |
| 2026-05-08 00:03 | 41.98770 | -87.91897 | 670 ft | 20 kts | 240° |
| 2026-05-08 00:03 | 41.98698 | -87.91946 | 670 ft | 13 kts | 154° |
| 2026-05-08 00:03 | 41.98679 | -87.91811 | 669 ft | 16 kts | 87° |
| 2026-05-08 00:03 | 41.98681 | -87.91648 | 666 ft | 18 kts | 90° |
| 2026-05-08 00:04 | 41.98680 | -87.91460 | 663 ft | 24 kts | 90° |
| 2026-05-08 00:04 | 41.98679 | -87.91219 | 660 ft | 26 kts | 90° |
| 2026-05-08 00:04 | 41.98679 | -87.90982 | 660 ft | 23 kts | 90° |
| 2026-05-08 00:04 | 41.98669 | -87.90886 | 660 ft | 13 kts | 129° |
| 2026-05-08 00:05 | 41.98590 | -87.90925 | 660 ft | 20 kts | 221° |
| 2026-05-08 00:05 | 41.98478 | -87.91052 | 663 ft | 21 kts | 219° |
| 2026-05-08 00:05 | 41.98369 | -87.91173 | 663 ft | 19 kts | 219° |
| 2026-05-08 00:05 | 41.98268 | -87.91217 | 666 ft | 14 kts | 154° |
| 2026-05-08 00:06 | 41.98195 | -87.91113 | 666 ft | 14 kts | 129° |
| 2026-05-08 00:06 | 41.98208 | -87.90981 | 666 ft | 17 kts | 60° |
| 2026-05-08 00:06 | 41.98222 | -87.90840 | 666 ft | 14 kts | 122° |
| 2026-05-08 00:06 | 41.98172 | -87.90787 | 666 ft | 9 kts | 141° |
| 2026-05-08 00:07 | 41.98145 | -87.90707 | 665 ft | 5 kts | 111° |
| 2026-05-08 00:07 | 41.98143 | -87.90700 | 664 ft | 0 kts | 112° |